Terminal Aerodrome Forecast
Issued by NWS

Home | Current Version | Previous Version | Text Only | Print | Product List | Glossary On
Versions: 1 2 3 4 5 6 7 8 9 10 11 12 13 14 15
356
FTUS42 KTBW 261129
TAFPIE
TAF
KPIE 261129Z 2612/2712 12008KT P6SM VCSH SCT020 OVC050
      TEMPO 2612/2615 6SM SHRA BKN020 OVC050
     FM261800 12013G18KT P6SM SHRA VCTS BKN030CB OVC100
     FM270300 10015G20KT P6SM SHRA VCTS BKN020CB OVC030
     FM270600 11017G24KT P6SM SHRA VCTS BKN020CB OVC030=

USA.gov is the U.S. government's official web portal to all federal, state and local government web resources and services.